sensor_id;sensor_type;location;lat;lon;timestamp;P1;durP1;ratioP1;P2;durP2;ratioP2
12631;SDS011;6381;45.748;12.106;2023-05-28T00:00:44;8.63;;;7.82;;
12631;SDS011;6381;45.748;12.106;2023-05-28T00:03:20;8.85;;;7.95;;
12631;SDS011;6381;45.748;12.106;2023-05-28T00:05:56;9.75;;;8.00;;
12631;SDS011;6381;45.748;12.106;2023-05-28T00:08:49;10.25;;;8.02;;
12631;SDS011;6381;45.748;12.106;2023-05-28T00:11:36;9.43;;;7.82;;
12631;SDS011;6381;45.748;12.106;2023-05-28T00:14:23;10.70;;;7.90;;
12631;SDS011;6381;45.748;12.106;2023-05-28T00:17:06;8.18;;;7.28;;
12631;SDS011;6381;45.748;12.106;2023-05-28T00:19:50;9.48;;;8.48;;
12631;SDS011;6381;45.748;12.106;2023-05-28T00:22:34;10.20;;;7.90;;
12631;SDS011;6381;45.748;12.106;2023-05-28T00:25:17;9.82;;;8.80;;
12631;SDS011;6381;45.748;12.106;2023-05-28T00:27:55;10.05;;;8.50;;
12631;SDS011;6381;45.748;12.106;2023-05-28T00:30:29;9.98;;;8.20;;
12631;SDS011;6381;45.748;12.106;2023-05-28T00:33:10;9.73;;;8.07;;
12631;SDS011;6381;45.748;12.106;2023-05-28T00:35:57;10.18;;;8.35;;
12631;SDS011;6381;45.748;12.106;2023-05-28T00:38:37;10.18;;;8.05;;
12631;SDS011;6381;45.748;12.106;2023-05-28T00:41:41;10.05;;;8.43;;
12631;SDS011;6381;45.748;12.106;2023-05-28T00:44:12;10.15;;;7.63;;
12631;SDS011;6381;45.748;12.106;2023-05-28T00:46:44;9.00;;;7.95;;
12631;SDS011;6381;45.748;12.106;2023-05-28T00:49:17;8.32;;;7.50;;
12631;SDS011;6381;45.748;12.106;2023-05-28T00:51:53;8.38;;;7.47;;
12631;SDS011;6381;45.748;12.106;2023-05-28T00:54:33;9.85;;;8.18;;
12631;SDS011;6381;45.748;12.106;2023-05-28T00:57:13;10.07;;;8.30;;
12631;SDS011;6381;45.748;12.106;2023-05-28T00:59:54;9.25;;;7.93;;
12631;SDS011;6381;45.748;12.106;2023-05-28T01:02:35;10.70;;;8.15;;
12631;SDS011;6381;45.748;12.106;2023-05-28T01:05:09;9.27;;;8.00;;
12631;SDS011;6381;45.748;12.106;2023-05-28T01:07:44;10.55;;;7.55;;
12631;SDS011;6381;45.748;12.106;2023-05-28T01:10:24;10.18;;;7.97;;
12631;SDS011;6381;45.748;12.106;2023-05-28T01:12:54;9.82;;;8.20;;
12631;SDS011;6381;45.748;12.106;2023-05-28T01:15:36;11.68;;;9.20;;
12631;SDS011;6381;45.748;12.106;2023-05-28T01:18:07;9.15;;;8.25;;
12631;SDS011;6381;45.748;12.106;2023-05-28T01:20:39;9.10;;;7.80;;
12631;SDS011;6381;45.748;12.106;2023-05-28T01:23:10;9.85;;;7.93;;
12631;SDS011;6381;45.748;12.106;2023-05-28T01:25:47;12.13;;;7.45;;
12631;SDS011;6381;45.748;12.106;2023-05-28T01:28:20;9.52;;;7.75;;
12631;SDS011;6381;45.748;12.106;2023-05-28T01:30:50;10.05;;;8.40;;
12631;SDS011;6381;45.748;12.106;2023-05-28T01:33:21;10.85;;;8.65;;
12631;SDS011;6381;45.748;12.106;2023-05-28T01:35:53;10.90;;;8.88;;
12631;SDS011;6381;45.748;12.106;2023-05-28T01:38:24;13.23;;;7.85;;
12631;SDS011;6381;45.748;12.106;2023-05-28T01:40:57;9.77;;;8.85;;
12631;SDS011;6381;45.748;12.106;2023-05-28T01:43:29;9.98;;;8.63;;
12631;SDS011;6381;45.748;12.106;2023-05-28T01:45:59;10.38;;;8.15;;
12631;SDS011;6381;45.748;12.106;2023-05-28T01:48:31;9.82;;;8.75;;
12631;SDS011;6381;45.748;12.106;2023-05-28T01:51:02;10.82;;;8.77;;
12631;SDS011;6381;45.748;12.106;2023-05-28T01:53:34;9.30;;;8.40;;
12631;SDS011;6381;45.748;12.106;2023-05-28T01:56:07;9.88;;;8.38;;
12631;SDS011;6381;45.748;12.106;2023-05-28T01:58:36;11.15;;;8.25;;
12631;SDS011;6381;45.748;12.106;2023-05-28T02:01:09;11.13;;;9.07;;
12631;SDS011;6381;45.748;12.106;2023-05-28T02:03:43;9.93;;;7.97;;
12631;SDS011;6381;45.748;12.106;2023-05-28T02:06:12;10.20;;;8.50;;
12631;SDS011;6381;45.748;12.106;2023-05-28T02:08:42;12.15;;;8.23;;
12631;SDS011;6381;45.748;12.106;2023-05-28T02:11:13;10.23;;;8.23;;
12631;SDS011;6381;45.748;12.106;2023-05-28T02:13:43;8.30;;;7.43;;
12631;SDS011;6381;45.748;12.106;2023-05-28T02:16:14;9.43;;;7.55;;
12631;SDS011;6381;45.748;12.106;2023-05-28T02:18:45;11.38;;;8.40;;
12631;SDS011;6381;45.748;12.106;2023-05-28T02:21:17;9.52;;;7.95;;
12631;SDS011;6381;45.748;12.106;2023-05-28T02:23:47;10.73;;;8.77;;
12631;SDS011;6381;45.748;12.106;2023-05-28T02:26:19;10.88;;;9.02;;
12631;SDS011;6381;45.748;12.106;2023-05-28T02:28:50;10.15;;;9.10;;
12631;SDS011;6381;45.748;12.106;2023-05-28T02:31:19;10.13;;;8.65;;
12631;SDS011;6381;45.748;12.106;2023-05-28T02:33:50;10.88;;;8.15;;
12631;SDS011;6381;45.748;12.106;2023-05-28T02:36:20;9.52;;;8.30;;
12631;SDS011;6381;45.748;12.106;2023-05-28T02:38:50;10.45;;;8.10;;
12631;SDS011;6381;45.748;12.106;2023-05-28T02:41:22;9.40;;;8.18;;
12631;SDS011;6381;45.748;12.106;2023-05-28T02:43:56;8.73;;;7.82;;
12631;SDS011;6381;45.748;12.106;2023-05-28T02:46:25;8.93;;;7.80;;
12631;SDS011;6381;45.748;12.106;2023-05-28T02:48:56;9.73;;;7.93;;
12631;SDS011;6381;45.748;12.106;2023-05-28T02:51:27;9.43;;;7.70;;
12631;SDS011;6381;45.748;12.106;2023-05-28T02:54:13;9.95;;;7.75;;
12631;SDS011;6381;45.748;12.106;2023-05-28T02:56:45;10.88;;;8.43;;
12631;SDS011;6381;45.748;12.106;2023-05-28T02:59:15;8.70;;;7.55;;
12631;SDS011;6381;45.748;12.106;2023-05-28T03:01:46;9.15;;;7.85;;
12631;SDS011;6381;45.748;12.106;2023-05-28T03:04:16;11.18;;;8.30;;
12631;SDS011;6381;45.748;12.106;2023-05-28T03:06:47;9.70;;;8.15;;
12631;SDS011;6381;45.748;12.106;2023-05-28T03:09:17;8.73;;;7.78;;
12631;SDS011;6381;45.748;12.106;2023-05-28T03:11:48;7.95;;;7.15;;
12631;SDS011;6381;45.748;12.106;2023-05-28T03:14:18;9.02;;;7.93;;
12631;SDS011;6381;45.748;12.106;2023-05-28T03:16:47;8.38;;;7.63;;
12631;SDS011;6381;45.748;12.106;2023-05-28T03:19:22;9.93;;;7.88;;
12631;SDS011;6381;45.748;12.106;2023-05-28T03:21:52;8.07;;;7.22;;
12631;SDS011;6381;45.748;12.106;2023-05-28T03:24:24;8.63;;;7.75;;
12631;SDS011;6381;45.748;12.106;2023-05-28T03:26:57;8.90;;;7.45;;
12631;SDS011;6381;45.748;12.106;2023-05-28T03:29:28;10.07;;;7.72;;
12631;SDS011;6381;45.748;12.106;2023-05-28T03:32:21;9.13;;;7.80;;
12631;SDS011;6381;45.748;12.106;2023-05-28T03:34:51;8.85;;;7.90;;
12631;SDS011;6381;45.748;12.106;2023-05-28T03:37:26;8.30;;;7.45;;
12631;SDS011;6381;45.748;12.106;2023-05-28T03:39:57;10.35;;;8.02;;
12631;SDS011;6381;45.748;12.106;2023-05-28T03:42:29;8.40;;;7.30;;
12631;SDS011;6381;45.748;12.106;2023-05-28T03:44:58;9.27;;;7.47;;
12631;SDS011;6381;45.748;12.106;2023-05-28T03:47:28;10.68;;;8.27;;
12631;SDS011;6381;45.748;12.106;2023-05-28T03:50:01;9.18;;;8.07;;
12631;SDS011;6381;45.748;12.106;2023-05-28T03:52:32;9.32;;;8.30;;
12631;SDS011;6381;45.748;12.106;2023-05-28T03:55:03;9.95;;;8.27;;
12631;SDS011;6381;45.748;12.106;2023-05-28T03:57:35;10.10;;;8.85;;
12631;SDS011;6381;45.748;12.106;2023-05-28T04:00:06;10.23;;;7.95;;
12631;SDS011;6381;45.748;12.106;2023-05-28T04:02:43;10.48;;;7.65;;
12631;SDS011;6381;45.748;12.106;2023-05-28T04:05:15;8.73;;;7.80;;
12631;SDS011;6381;45.748;12.106;2023-05-28T04:07:45;10.90;;;8.15;;
12631;SDS011;6381;45.748;12.106;2023-05-28T04:10:15;10.25;;;8.57;;
12631;SDS011;6381;45.748;12.106;2023-05-28T04:12:46;12.82;;;8.27;;
12631;SDS011;6381;45.748;12.106;2023-05-28T04:15:16;14.00;;;7.85;;
12631;SDS011;6381;45.748;12.106;2023-05-28T04:17:46;9.50;;;8.48;;
12631;SDS011;6381;45.748;12.106;2023-05-28T04:20:16;8.75;;;7.88;;
12631;SDS011;6381;45.748;12.106;2023-05-28T04:22:48;9.73;;;7.80;;
12631;SDS011;6381;45.748;12.106;2023-05-28T04:25:18;10.05;;;7.90;;
12631;SDS011;6381;45.748;12.106;2023-05-28T04:27:50;10.52;;;8.27;;
12631;SDS011;6381;45.748;12.106;2023-05-28T04:30:20;9.93;;;7.45;;
12631;SDS011;6381;45.748;12.106;2023-05-28T04:32:51;9.40;;;7.88;;
12631;SDS011;6381;45.748;12.106;2023-05-28T04:35:21;9.30;;;7.57;;
12631;SDS011;6381;45.748;12.106;2023-05-28T04:37:50;9.25;;;7.47;;
12631;SDS011;6381;45.748;12.106;2023-05-28T04:40:20;9.75;;;7.97;;
12631;SDS011;6381;45.748;12.106;2023-05-28T04:42:52;8.73;;;7.47;;
12631;SDS011;6381;45.748;12.106;2023-05-28T04:45:24;11.63;;;7.22;;
12631;SDS011;6381;45.748;12.106;2023-05-28T04:47:54;8.63;;;7.18;;
12631;SDS011;6381;45.748;12.106;2023-05-28T04:50:25;8.98;;;7.45;;
12631;SDS011;6381;45.748;12.106;2023-05-28T04:52:55;8.68;;;7.30;;
12631;SDS011;6381;45.748;12.106;2023-05-28T04:55:24;7.72;;;7.00;;
12631;SDS011;6381;45.748;12.106;2023-05-28T04:57:56;9.48;;;7.70;;
12631;SDS011;6381;45.748;12.106;2023-05-28T05:00:26;9.98;;;7.95;;
12631;SDS011;6381;45.748;12.106;2023-05-28T05:03:00;8.50;;;7.63;;
12631;SDS011;6381;45.748;12.106;2023-05-28T05:05:31;8.75;;;7.53;;
12631;SDS011;6381;45.748;12.106;2023-05-28T05:08:02;7.85;;;7.05;;
12631;SDS011;6381;45.748;12.106;2023-05-28T05:10:31;10.32;;;7.72;;
12631;SDS011;6381;45.748;12.106;2023-05-28T05:13:03;10.00;;;7.18;;
12631;SDS011;6381;45.748;12.106;2023-05-28T05:15:32;9.63;;;7.60;;
12631;SDS011;6381;45.748;12.106;2023-05-28T05:18:03;8.82;;;7.68;;
12631;SDS011;6381;45.748;12.106;2023-05-28T05:20:33;10.55;;;8.00;;
12631;SDS011;6381;45.748;12.106;2023-05-28T05:23:03;10.32;;;7.55;;
12631;SDS011;6381;45.748;12.106;2023-05-28T05:25:33;10.95;;;8.23;;
12631;SDS011;6381;45.748;12.106;2023-05-28T05:28:04;9.20;;;7.80;;
12631;SDS011;6381;45.748;12.106;2023-05-28T05:30:34;9.63;;;8.18;;
12631;SDS011;6381;45.748;12.106;2023-05-28T05:33:04;9.02;;;7.55;;
12631;SDS011;6381;45.748;12.106;2023-05-28T05:35:53;8.15;;;7.38;;
12631;SDS011;6381;45.748;12.106;2023-05-28T05:38:41;7.78;;;6.97;;
12631;SDS011;6381;45.748;12.106;2023-05-28T05:41:33;9.80;;;7.75;;
12631;SDS011;6381;45.748;12.106;2023-05-28T05:44:16;10.70;;;7.97;;
12631;SDS011;6381;45.748;12.106;2023-05-28T05:46:46;9.10;;;8.10;;
12631;SDS011;6381;45.748;12.106;2023-05-28T05:49:17;9.73;;;8.50;;
12631;SDS011;6381;45.748;12.106;2023-05-28T05:51:47;10.00;;;8.10;;
12631;SDS011;6381;45.748;12.106;2023-05-28T05:54:18;9.68;;;7.72;;
12631;SDS011;6381;45.748;12.106;2023-05-28T05:56:48;8.82;;;7.93;;
12631;SDS011;6381;45.748;12.106;2023-05-28T05:59:23;8.75;;;7.63;;
12631;SDS011;6381;45.748;12.106;2023-05-28T06:01:54;8.80;;;8.00;;
12631;SDS011;6381;45.748;12.106;2023-05-28T06:04:27;9.18;;;8.13;;
12631;SDS011;6381;45.748;12.106;2023-05-28T06:07:30;9.20;;;8.30;;
12631;SDS011;6381;45.748;12.106;2023-05-28T06:10:22;10.05;;;8.75;;
12631;SDS011;6381;45.748;12.106;2023-05-28T06:12:52;10.10;;;8.23;;
12631;SDS011;6381;45.748;12.106;2023-05-28T06:15:24;12.05;;;8.98;;
12631;SDS011;6381;45.748;12.106;2023-05-28T06:17:55;9.07;;;7.72;;
12631;SDS011;6381;45.748;12.106;2023-05-28T06:20:25;9.63;;;7.80;;
12631;SDS011;6381;45.748;12.106;2023-05-28T06:22:56;7.80;;;7.00;;
12631;SDS011;6381;45.748;12.106;2023-05-28T06:25:26;8.77;;;7.88;;
12631;SDS011;6381;45.748;12.106;2023-05-28T06:27:56;8.63;;;7.53;;
12631;SDS011;6381;45.748;12.106;2023-05-28T06:30:27;8.73;;;7.57;;
12631;SDS011;6381;45.748;12.106;2023-05-28T06:32:58;8.45;;;7.65;;
12631;SDS011;6381;45.748;12.106;2023-05-28T06:35:29;8.90;;;8.00;;
12631;SDS011;6381;45.748;12.106;2023-05-28T06:38:00;8.63;;;7.00;;
12631;SDS011;6381;45.748;12.106;2023-05-28T06:40:30;8.90;;;8.00;;
12631;SDS011;6381;45.748;12.106;2023-05-28T06:43:00;9.30;;;8.30;;
12631;SDS011;6381;45.748;12.106;2023-05-28T06:45:34;10.50;;;8.65;;
12631;SDS011;6381;45.748;12.106;2023-05-28T06:48:06;8.18;;;7.00;;
12631;SDS011;6381;45.748;12.106;2023-05-28T06:50:36;10.30;;;7.88;;
12631;SDS011;6381;45.748;12.106;2023-05-28T06:53:06;11.05;;;7.70;;
12631;SDS011;6381;45.748;12.106;2023-05-28T06:55:36;9.23;;;8.32;;
12631;SDS011;6381;45.748;12.106;2023-05-28T06:58:43;9.65;;;8.65;;
12631;SDS011;6381;45.748;12.106;2023-05-28T07:01:18;9.65;;;8.48;;
12631;SDS011;6381;45.748;12.106;2023-05-28T07:03:59;9.63;;;8.00;;
12631;SDS011;6381;45.748;12.106;2023-05-28T07:06:38;10.27;;;8.95;;
12631;SDS011;6381;45.748;12.106;2023-05-28T07:09:12;8.40;;;7.60;;
12631;SDS011;6381;45.748;12.106;2023-05-28T07:11:43;8.68;;;7.60;;
12631;SDS011;6381;45.748;12.106;2023-05-28T07:14:13;10.50;;;8.30;;
12631;SDS011;6381;45.748;12.106;2023-05-28T07:16:44;9.75;;;8.32;;
12631;SDS011;6381;45.748;12.106;2023-05-28T07:19:14;8.75;;;7.85;;
12631;SDS011;6381;45.748;12.106;2023-05-28T07:21:45;8.80;;;7.93;;
12631;SDS011;6381;45.748;12.106;2023-05-28T07:24:16;8.52;;;7.63;;
12631;SDS011;6381;45.748;12.106;2023-05-28T07:26:46;9.40;;;8.00;;
12631;SDS011;6381;45.748;12.106;2023-05-28T07:29:17;8.48;;;7.57;;
12631;SDS011;6381;45.748;12.106;2023-05-28T07:31:48;9.13;;;7.50;;
12631;SDS011;6381;45.748;12.106;2023-05-28T07:34:22;9.23;;;7.35;;
12631;SDS011;6381;45.748;12.106;2023-05-28T07:36:52;8.50;;;7.55;;
12631;SDS011;6381;45.748;12.106;2023-05-28T07:39:22;9.13;;;7.20;;
12631;SDS011;6381;45.748;12.106;2023-05-28T07:41:52;7.95;;;7.07;;
12631;SDS011;6381;45.748;12.106;2023-05-28T07:44:31;9.43;;;7.47;;
12631;SDS011;6381;45.748;12.106;2023-05-28T07:47:03;8.35;;;7.40;;
12631;SDS011;6381;45.748;12.106;2023-05-28T07:49:51;8.20;;;7.40;;
12631;SDS011;6381;45.748;12.106;2023-05-28T07:52:29;9.00;;;8.10;;
12631;SDS011;6381;45.748;12.106;2023-05-28T07:54:59;9.68;;;7.82;;
12631;SDS011;6381;45.748;12.106;2023-05-28T07:57:31;10.02;;;7.72;;
12631;SDS011;6381;45.748;12.106;2023-05-28T08:00:01;11.98;;;7.70;;
12631;SDS011;6381;45.748;12.106;2023-05-28T08:02:41;10.45;;;8.80;;
12631;SDS011;6381;45.748;12.106;2023-05-28T08:05:14;8.77;;;7.78;;
12631;SDS011;6381;45.748;12.106;2023-05-28T08:07:46;8.75;;;7.75;;
12631;SDS011;6381;45.748;12.106;2023-05-28T08:10:17;9.70;;;8.40;;
12631;SDS011;6381;45.748;12.106;2023-05-28T08:12:46;10.43;;;9.00;;
12631;SDS011;6381;45.748;12.106;2023-05-28T08:15:17;9.27;;;8.02;;
12631;SDS011;6381;45.748;12.106;2023-05-28T08:17:50;12.02;;;9.05;;
12631;SDS011;6381;45.748;12.106;2023-05-28T08:20:22;10.07;;;8.35;;
12631;SDS011;6381;45.748;12.106;2023-05-28T08:22:58;10.50;;;8.13;;
12631;SDS011;6381;45.748;12.106;2023-05-28T08:25:27;10.88;;;8.90;;
12631;SDS011;6381;45.748;12.106;2023-05-28T08:28:04;11.10;;;8.88;;
12631;SDS011;6381;45.748;12.106;2023-05-28T08:30:37;10.35;;;8.07;;
12631;SDS011;6381;45.748;12.106;2023-05-28T08:33:18;11.07;;;8.27;;
12631;SDS011;6381;45.748;12.106;2023-05-28T08:35:49;9.32;;;8.15;;
12631;SDS011;6381;45.748;12.106;2023-05-28T08:38:21;11.80;;;9.43;;
12631;SDS011;6381;45.748;12.106;2023-05-28T08:40:53;11.35;;;8.93;;
12631;SDS011;6381;45.748;12.106;2023-05-28T08:43:26;11.93;;;9.63;;
12631;SDS011;6381;45.748;12.106;2023-05-28T08:45:56;12.25;;;9.35;;
12631;SDS011;6381;45.748;12.106;2023-05-28T08:48:36;10.23;;;8.70;;
12631;SDS011;6381;45.748;12.106;2023-05-28T08:51:08;10.48;;;8.25;;
12631;SDS011;6381;45.748;12.106;2023-05-28T08:53:43;11.73;;;8.65;;
12631;SDS011;6381;45.748;12.106;2023-05-28T08:56:24;10.07;;;7.95;;
12631;SDS011;6381;45.748;12.106;2023-05-28T08:58:53;10.40;;;8.80;;
12631;SDS011;6381;45.748;12.106;2023-05-28T09:01:24;13.43;;;9.07;;
12631;SDS011;6381;45.748;12.106;2023-05-28T09:04:25;11.90;;;8.60;;
12631;SDS011;6381;45.748;12.106;2023-05-28T09:06:56;10.43;;;8.57;;
12631;SDS011;6381;45.748;12.106;2023-05-28T09:09:37;12.25;;;8.48;;
12631;SDS011;6381;45.748;12.106;2023-05-28T09:12:09;10.25;;;8.23;;
12631;SDS011;6381;45.748;12.106;2023-05-28T09:14:44;10.82;;;8.93;;
12631;SDS011;6381;45.748;12.106;2023-05-28T09:17:14;9.68;;;8.68;;
12631;SDS011;6381;45.748;12.106;2023-05-28T09:19:51;10.93;;;8.50;;
12631;SDS011;6381;45.748;12.106;2023-05-28T09:22:21;9.57;;;8.68;;
12631;SDS011;6381;45.748;12.106;2023-05-28T09:25:00;12.95;;;8.98;;
12631;SDS011;6381;45.748;12.106;2023-05-28T09:27:54;11.13;;;8.40;;
12631;SDS011;6381;45.748;12.106;2023-05-28T09:30:25;10.30;;;8.57;;
12631;SDS011;6381;45.748;12.106;2023-05-28T09:32:59;11.68;;;8.43;;
12631;SDS011;6381;45.748;12.106;2023-05-28T09:35:33;11.65;;;8.27;;
12631;SDS011;6381;45.748;12.106;2023-05-28T09:38:03;13.45;;;8.45;;
12631;SDS011;6381;45.748;12.106;2023-05-28T09:40:37;13.40;;;8.82;;
12631;SDS011;6381;45.748;12.106;2023-05-28T09:43:07;10.15;;;7.90;;
12631;SDS011;6381;45.748;12.106;2023-05-28T09:45:38;10.02;;;8.07;;
12631;SDS011;6381;45.748;12.106;2023-05-28T09:48:08;8.30;;;7.38;;
12631;SDS011;6381;45.748;12.106;2023-05-28T09:50:39;8.65;;;7.68;;
12631;SDS011;6381;45.748;12.106;2023-05-28T09:53:09;10.80;;;8.52;;
12631;SDS011;6381;45.748;12.106;2023-05-28T09:55:40;8.88;;;7.70;;
12631;SDS011;6381;45.748;12.106;2023-05-28T09:58:10;10.63;;;8.30;;
12631;SDS011;6381;45.748;12.106;2023-05-28T10:00:42;8.80;;;7.28;;
12631;SDS011;6381;45.748;12.106;2023-05-28T10:03:17;9.05;;;6.85;;
12631;SDS011;6381;45.748;12.106;2023-05-28T10:05:54;8.57;;;7.43;;
12631;SDS011;6381;45.748;12.106;2023-05-28T10:08:28;11.05;;;7.30;;
12631;SDS011;6381;45.748;12.106;2023-05-28T10:10:58;10.38;;;8.18;;
12631;SDS011;6381;45.748;12.106;2023-05-28T10:13:28;9.52;;;8.23;;
12631;SDS011;6381;45.748;12.106;2023-05-28T10:15:59;12.38;;;8.23;;
12631;SDS011;6381;45.748;12.106;2023-05-28T10:18:29;8.65;;;7.63;;
12631;SDS011;6381;45.748;12.106;2023-05-28T10:21:01;9.27;;;7.10;;
12631;SDS011;6381;45.748;12.106;2023-05-28T10:23:33;8.90;;;8.00;;
12631;SDS011;6381;45.748;12.106;2023-05-28T10:26:03;9.63;;;7.82;;
12631;SDS011;6381;45.748;12.106;2023-05-28T10:28:33;12.40;;;7.65;;
12631;SDS011;6381;45.748;12.106;2023-05-28T10:31:04;10.13;;;7.75;;
12631;SDS011;6381;45.748;12.106;2023-05-28T10:33:37;8.80;;;6.60;;
12631;SDS011;6381;45.748;12.106;2023-05-28T10:36:10;8.77;;;7.85;;
12631;SDS011;6381;45.748;12.106;2023-05-28T10:38:42;9.77;;;7.72;;
12631;SDS011;6381;45.748;12.106;2023-05-28T10:41:17;9.80;;;6.97;;
12631;SDS011;6381;45.748;12.106;2023-05-28T10:43:48;9.50;;;8.30;;
12631;SDS011;6381;45.748;12.106;2023-05-28T10:46:18;11.25;;;7.78;;
12631;SDS011;6381;45.748;12.106;2023-05-28T10:49:10;9.45;;;8.10;;
12631;SDS011;6381;45.748;12.106;2023-05-28T10:51:50;8.93;;;7.80;;
12631;SDS011;6381;45.748;12.106;2023-05-28T10:54:24;10.40;;;8.75;;
12631;SDS011;6381;45.748;12.106;2023-05-28T10:57:09;11.07;;;8.32;;
12631;SDS011;6381;45.748;12.106;2023-05-28T10:59:43;10.13;;;8.02;;
12631;SDS011;6381;45.748;12.106;2023-05-28T11:02:18;10.57;;;8.48;;
12631;SDS011;6381;45.748;12.106;2023-05-28T11:04:52;9.40;;;8.40;;
12631;SDS011;6381;45.748;12.106;2023-05-28T11:07:29;9.80;;;8.40;;
12631;SDS011;6381;45.748;12.106;2023-05-28T11:10:00;13.65;;;8.30;;
12631;SDS011;6381;45.748;12.106;2023-05-28T11:12:32;8.65;;;7.80;;
12631;SDS011;6381;45.748;12.106;2023-05-28T11:15:04;9.15;;;7.40;;
12631;SDS011;6381;45.748;12.106;2023-05-28T11:17:36;11.90;;;9.00;;
12631;SDS011;6381;45.748;12.106;2023-05-28T11:20:15;11.68;;;7.82;;
12631;SDS011;6381;45.748;12.106;2023-05-28T11:22:48;8.95;;;7.85;;
12631;SDS011;6381;45.748;12.106;2023-05-28T11:25:18;11.98;;;8.25;;
12631;SDS011;6381;45.748;12.106;2023-05-28T11:27:49;10.05;;;8.35;;
12631;SDS011;6381;45.748;12.106;2023-05-28T11:30:19;9.32;;;7.93;;
12631;SDS011;6381;45.748;12.106;2023-05-28T11:32:49;10.00;;;8.27;;
12631;SDS011;6381;45.748;12.106;2023-05-28T11:35:19;13.35;;;9.23;;
12631;SDS011;6381;45.748;12.106;2023-05-28T11:37:50;10.27;;;8.45;;
12631;SDS011;6381;45.748;12.106;2023-05-28T11:40:20;10.00;;;8.77;;
12631;SDS011;6381;45.748;12.106;2023-05-28T11:42:52;9.27;;;8.20;;
12631;SDS011;6381;45.748;12.106;2023-05-28T11:45:27;9.70;;;8.18;;
12631;SDS011;6381;45.748;12.106;2023-05-28T11:48:07;9.60;;;8.05;;
12631;SDS011;6381;45.748;12.106;2023-05-28T11:50:43;9.95;;;8.82;;
12631;SDS011;6381;45.748;12.106;2023-05-28T11:53:14;11.20;;;8.45;;
12631;SDS011;6381;45.748;12.106;2023-05-28T11:55:44;10.07;;;8.63;;
12631;SDS011;6381;45.748;12.106;2023-05-28T11:58:14;9.70;;;8.30;;
12631;SDS011;6381;45.748;12.106;2023-05-28T12:00:44;11.00;;;8.27;;
12631;SDS011;6381;45.748;12.106;2023-05-28T12:03:14;9.85;;;8.40;;
12631;SDS011;6381;45.748;12.106;2023-05-28T12:05:45;9.07;;;8.15;;
12631;SDS011;6381;45.748;12.106;2023-05-28T12:08:17;8.85;;;7.95;;
12631;SDS011;6381;45.748;12.106;2023-05-28T12:10:48;11.52;;;8.70;;
12631;SDS011;6381;45.748;12.106;2023-05-28T12:13:22;9.40;;;7.97;;
12631;SDS011;6381;45.748;12.106;2023-05-28T12:16:05;9.55;;;8.18;;
12631;SDS011;6381;45.748;12.106;2023-05-28T12:18:40;9.48;;;8.38;;
12631;SDS011;6381;45.748;12.106;2023-05-28T12:21:10;10.60;;;7.40;;
12631;SDS011;6381;45.748;12.106;2023-05-28T12:23:47;9.02;;;7.35;;
12631;SDS011;6381;45.748;12.106;2023-05-28T12:26:17;9.38;;;7.65;;
12631;SDS011;6381;45.748;12.106;2023-05-28T12:28:47;9.30;;;7.65;;
12631;SDS011;6381;45.748;12.106;2023-05-28T12:31:19;9.48;;;7.00;;
12631;SDS011;6381;45.748;12.106;2023-05-28T12:33:56;9.75;;;7.28;;
12631;SDS011;6381;45.748;12.106;2023-05-28T12:36:26;8.07;;;7.22;;
12631;SDS011;6381;45.748;12.106;2023-05-28T12:38:58;9.68;;;7.25;;
12631;SDS011;6381;45.748;12.106;2023-05-28T12:41:27;8.48;;;6.63;;
12631;SDS011;6381;45.748;12.106;2023-05-28T12:43:57;8.07;;;7.28;;
12631;SDS011;6381;45.748;12.106;2023-05-28T12:46:29;9.18;;;7.55;;
12631;SDS011;6381;45.748;12.106;2023-05-28T12:49:02;10.95;;;6.88;;
12631;SDS011;6381;45.748;12.106;2023-05-28T12:51:32;9.32;;;7.07;;
12631;SDS011;6381;45.748;12.106;2023-05-28T12:54:04;9.45;;;6.88;;
12631;SDS011;6381;45.748;12.106;2023-05-28T12:56:37;7.82;;;6.80;;
12631;SDS011;6381;45.748;12.106;2023-05-28T12:59:08;9.10;;;6.88;;
12631;SDS011;6381;45.748;12.106;2023-05-28T13:01:49;7.60;;;6.90;;
12631;SDS011;6381;45.748;12.106;2023-05-28T13:04:20;8.95;;;6.88;;
12631;SDS011;6381;45.748;12.106;2023-05-28T13:06:50;8.40;;;6.63;;
12631;SDS011;6381;45.748;12.106;2023-05-28T13:09:21;9.90;;;7.00;;
12631;SDS011;6381;45.748;12.106;2023-05-28T13:11:52;7.80;;;6.57;;
12631;SDS011;6381;45.748;12.106;2023-05-28T13:14:23;8.55;;;6.70;;
12631;SDS011;6381;45.748;12.106;2023-05-28T13:16:53;6.65;;;6.00;;
12631;SDS011;6381;45.748;12.106;2023-05-28T13:19:23;6.93;;;6.20;;
12631;SDS011;6381;45.748;12.106;2023-05-28T13:21:53;12.27;;;6.93;;
12631;SDS011;6381;45.748;12.106;2023-05-28T13:24:24;8.70;;;5.70;;
12631;SDS011;6381;45.748;12.106;2023-05-28T13:27:11;7.35;;;6.55;;
12631;SDS011;6381;45.748;12.106;2023-05-28T13:29:42;8.93;;;6.63;;
12631;SDS011;6381;45.748;12.106;2023-05-28T13:32:12;7.32;;;6.45;;
12631;SDS011;6381;45.748;12.106;2023-05-28T13:34:42;8.75;;;6.30;;
12631;SDS011;6381;45.748;12.106;2023-05-28T13:37:12;7.38;;;6.28;;
12631;SDS011;6381;45.748;12.106;2023-05-28T13:39:44;6.85;;;5.95;;
12631;SDS011;6381;45.748;12.106;2023-05-28T13:42:14;7.15;;;5.95;;
12631;SDS011;6381;45.748;12.106;2023-05-28T13:44:48;6.40;;;5.70;;
12631;SDS011;6381;45.748;12.106;2023-05-28T13:47:18;8.65;;;5.95;;
12631;SDS011;6381;45.748;12.106;2023-05-28T13:49:48;8.55;;;5.80;;
12631;SDS011;6381;45.748;12.106;2023-05-28T13:52:18;6.80;;;5.95;;
12631;SDS011;6381;45.748;12.106;2023-05-28T13:54:50;6.50;;;5.80;;
12631;SDS011;6381;45.748;12.106;2023-05-28T13:57:20;6.20;;;5.60;;
12631;SDS011;6381;45.748;12.106;2023-05-28T13:59:50;6.47;;;5.63;;
12631;SDS011;6381;45.748;12.106;2023-05-28T14:02:19;6.63;;;5.90;;
12631;SDS011;6381;45.748;12.106;2023-05-28T14:04:50;6.20;;;5.18;;
12631;SDS011;6381;45.748;12.106;2023-05-28T14:07:19;6.40;;;5.25;;
12631;SDS011;6381;45.748;12.106;2023-05-28T14:09:51;5.88;;;5.32;;
12631;SDS011;6381;45.748;12.106;2023-05-28T14:12:22;7.25;;;5.68;;
12631;SDS011;6381;45.748;12.106;2023-05-28T14:14:53;7.03;;;5.40;;
12631;SDS011;6381;45.748;12.106;2023-05-28T14:17:23;6.57;;;5.22;;
12631;SDS011;6381;45.748;12.106;2023-05-28T14:19:52;6.80;;;5.63;;
12631;SDS011;6381;45.748;12.106;2023-05-28T14:22:22;7.22;;;5.80;;
12631;SDS011;6381;45.748;12.106;2023-05-28T14:24:55;9.20;;;6.05;;
12631;SDS011;6381;45.748;12.106;2023-05-28T14:27:27;6.03;;;5.43;;
12631;SDS011;6381;45.748;12.106;2023-05-28T14:29:56;7.95;;;5.72;;
12631;SDS011;6381;45.748;12.106;2023-05-28T14:32:27;6.45;;;5.85;;
12631;SDS011;6381;45.748;12.106;2023-05-28T14:35:00;6.32;;;5.20;;
12631;SDS011;6381;45.748;12.106;2023-05-28T14:37:30;6.78;;;5.55;;
12631;SDS011;6381;45.748;12.106;2023-05-28T14:40:07;7.30;;;5.55;;
12631;SDS011;6381;45.748;12.106;2023-05-28T14:42:38;6.20;;;5.60;;
12631;SDS011;6381;45.748;12.106;2023-05-28T14:45:08;6.15;;;5.15;;
12631;SDS011;6381;45.748;12.106;2023-05-28T14:47:38;7.30;;;5.93;;
12631;SDS011;6381;45.748;12.106;2023-05-28T14:50:08;6.50;;;5.68;;
12631;SDS011;6381;45.748;12.106;2023-05-28T14:52:38;6.63;;;5.63;;
12631;SDS011;6381;45.748;12.106;2023-05-28T14:55:12;6.60;;;5.55;;
12631;SDS011;6381;45.748;12.106;2023-05-28T14:57:47;6.07;;;5.13;;
12631;SDS011;6381;45.748;12.106;2023-05-28T15:00:20;6.57;;;5.57;;
12631;SDS011;6381;45.748;12.106;2023-05-28T15:02:50;5.97;;;5.38;;
12631;SDS011;6381;45.748;12.106;2023-05-28T15:05:21;9.07;;;6.00;;
12631;SDS011;6381;45.748;12.106;2023-05-28T15:07:53;7.10;;;5.93;;
12631;SDS011;6381;45.748;12.106;2023-05-28T15:10:24;7.47;;;5.93;;
12631;SDS011;6381;45.748;12.106;2023-05-28T15:12:55;7.70;;;5.88;;
12631;SDS011;6381;45.748;12.106;2023-05-28T15:15:26;7.55;;;6.38;;
12631;SDS011;6381;45.748;12.106;2023-05-28T15:18:05;6.47;;;5.63;;